sensor_id;sensor_type;location;lat;lon;timestamp;P1;durP1;ratioP1;P2;durP2;ratioP2
3817;SDS011;1924;48.078;11.516;2024-02-14T00:02:26;28.00;;;0.80;;
3817;SDS011;1924;48.078;11.516;2024-02-14T00:04:52;28.10;;;0.80;;
3817;SDS011;1924;48.078;11.516;2024-02-14T00:07:19;28.10;;;0.80;;
3817;SDS011;1924;48.078;11.516;2024-02-14T00:09:46;28.00;;;0.80;;
3817;SDS011;1924;48.078;11.516;2024-02-14T00:12:13;27.80;;;0.80;;
3817;SDS011;1924;48.078;11.516;2024-02-14T00:14:40;28.10;;;0.80;;
3817;SDS011;1924;48.078;11.516;2024-02-14T00:17:07;27.90;;;0.80;;
3817;SDS011;1924;48.078;11.516;2024-02-14T00:19:36;28.07;;;0.80;;
3817;SDS011;1924;48.078;11.516;2024-02-14T00:22:03;27.90;;;0.80;;
3817;SDS011;1924;48.078;11.516;2024-02-14T00:27:10;28.00;;;0.80;;
3817;SDS011;1924;48.078;11.516;2024-02-14T00:29:39;27.80;;;0.80;;
3817;SDS011;1924;48.078;11.516;2024-02-14T00:32:06;27.90;;;0.80;;
3817;SDS011;1924;48.078;11.516;2024-02-14T00:34:32;27.90;;;0.80;;
3817;SDS011;1924;48.078;11.516;2024-02-14T00:37:00;28.00;;;0.80;;
3817;SDS011;1924;48.078;11.516;2024-02-14T00:39:27;27.90;;;0.80;;
3817;SDS011;1924;48.078;11.516;2024-02-14T00:41:54;28.00;;;0.80;;
3817;SDS011;1924;48.078;11.516;2024-02-14T00:44:21;28.00;;;0.80;;
3817;SDS011;1924;48.078;11.516;2024-02-14T00:46:48;28.00;;;0.80;;
3817;SDS011;1924;48.078;11.516;2024-02-14T00:49:15;27.70;;;0.80;;
3817;SDS011;1924;48.078;11.516;2024-02-14T00:51:42;28.00;;;0.80;;
3817;SDS011;1924;48.078;11.516;2024-02-14T00:54:10;28.00;;;0.80;;
3817;SDS011;1924;48.078;11.516;2024-02-14T00:56:36;28.00;;;0.80;;
3817;SDS011;1924;48.078;11.516;2024-02-14T00:59:03;27.90;;;0.80;;
3817;SDS011;1924;48.078;11.516;2024-02-14T01:01:31;27.90;;;0.80;;
3817;SDS011;1924;48.078;11.516;2024-02-14T01:03:57;27.70;;;0.80;;
3817;SDS011;1924;48.078;11.516;2024-02-14T01:06:24;27.90;;;0.80;;
3817;SDS011;1924;48.078;11.516;2024-02-14T01:08:52;27.70;;;0.80;;
3817;SDS011;1924;48.078;11.516;2024-02-14T01:11:20;27.80;;;0.80;;
3817;SDS011;1924;48.078;11.516;2024-02-14T05:01:52;27.70;;;0.80;;
3817;SDS011;1924;48.078;11.516;2024-02-14T05:04:19;27.60;;;0.80;;
3817;SDS011;1924;48.078;11.516;2024-02-14T05:06:46;27.80;;;0.80;;
3817;SDS011;1924;48.078;11.516;2024-02-14T05:09:12;27.70;;;0.80;;
3817;SDS011;1924;48.078;11.516;2024-02-14T05:11:40;27.67;;;0.80;;
3817;SDS011;1924;48.078;11.516;2024-02-14T05:14:06;27.70;;;0.80;;
3817;SDS011;1924;48.078;11.516;2024-02-14T05:16:33;27.70;;;0.80;;
3817;SDS011;1924;48.078;11.516;2024-02-14T05:19:01;27.70;;;0.80;;
3817;SDS011;1924;48.078;11.516;2024-02-14T05:21:28;27.67;;;0.80;;
3817;SDS011;1924;48.078;11.516;2024-02-14T05:23:55;27.60;;;0.80;;
3817;SDS011;1924;48.078;11.516;2024-02-14T05:26:21;27.70;;;0.80;;
3817;SDS011;1924;48.078;11.516;2024-02-14T05:28:48;27.70;;;0.80;;
3817;SDS011;1924;48.078;11.516;2024-02-14T05:31:15;27.50;;;0.80;;
3817;SDS011;1924;48.078;11.516;2024-02-14T05:33:42;27.50;;;0.80;;
3817;SDS011;1924;48.078;11.516;2024-02-14T05:36:10;27.60;;;0.80;;
3817;SDS011;1924;48.078;11.516;2024-02-14T05:38:37;27.30;;;0.80;;
3817;SDS011;1924;48.078;11.516;2024-02-14T05:41:04;27.50;;;0.80;;
3817;SDS011;1924;48.078;11.516;2024-02-14T05:43:32;27.70;;;0.80;;
3817;SDS011;1924;48.078;11.516;2024-02-14T05:46:00;27.50;;;0.80;;
3817;SDS011;1924;48.078;11.516;2024-02-14T05:48:26;27.60;;;0.80;;
3817;SDS011;1924;48.078;11.516;2024-02-14T05:50:53;27.60;;;0.80;;
3817;SDS011;1924;48.078;11.516;2024-02-14T05:53:21;27.50;;;0.80;;
3817;SDS011;1924;48.078;11.516;2024-02-14T05:55:48;27.77;;;0.80;;
3817;SDS011;1924;48.078;11.516;2024-02-14T05:58:15;27.70;;;0.80;;
3817;SDS011;1924;48.078;11.516;2024-02-14T06:00:42;27.73;;;0.80;;
3817;SDS011;1924;48.078;11.516;2024-02-14T06:03:08;27.60;;;0.80;;
3817;SDS011;1924;48.078;11.516;2024-02-14T06:05:35;27.70;;;0.80;;
3817;SDS011;1924;48.078;11.516;2024-02-14T06:08:02;27.60;;;0.80;;
3817;SDS011;1924;48.078;11.516;2024-02-14T06:10:30;27.60;;;0.80;;
3817;SDS011;1924;48.078;11.516;2024-02-14T06:12:59;27.70;;;0.80;;
3817;SDS011;1924;48.078;11.516;2024-02-14T06:15:25;27.60;;;0.80;;
3817;SDS011;1924;48.078;11.516;2024-02-14T06:17:52;27.60;;;0.80;;
3817;SDS011;1924;48.078;11.516;2024-02-14T06:20:19;27.70;;;0.80;;
3817;SDS011;1924;48.078;11.516;2024-02-14T06:22:46;27.60;;;0.80;;
3817;SDS011;1924;48.078;11.516;2024-02-14T06:25:12;27.40;;;0.80;;
3817;SDS011;1924;48.078;11.516;2024-02-14T06:27:42;27.30;;;0.80;;
3817;SDS011;1924;48.078;11.516;2024-02-14T06:30:10;27.40;;;0.80;;
3817;SDS011;1924;48.078;11.516;2024-02-14T06:32:37;27.60;;;0.80;;
3817;SDS011;1924;48.078;11.516;2024-02-14T06:35:04;27.60;;;0.80;;
3817;SDS011;1924;48.078;11.516;2024-02-14T06:37:31;27.60;;;0.80;;
3817;SDS011;1924;48.078;11.516;2024-02-14T06:39:58;27.60;;;0.80;;
3817;SDS011;1924;48.078;11.516;2024-02-14T06:42:24;27.60;;;0.80;;
3817;SDS011;1924;48.078;11.516;2024-02-14T06:44:52;27.60;;;0.80;;
3817;SDS011;1924;48.078;11.516;2024-02-14T06:47:19;27.50;;;0.80;;
3817;SDS011;1924;48.078;11.516;2024-02-14T06:49:46;27.50;;;0.80;;
3817;SDS011;1924;48.078;11.516;2024-02-14T06:52:13;27.60;;;0.80;;
3817;SDS011;1924;48.078;11.516;2024-02-14T06:54:39;27.37;;;0.80;;
3817;SDS011;1924;48.078;11.516;2024-02-14T06:57:06;27.40;;;0.80;;
3817;SDS011;1924;48.078;11.516;2024-02-14T06:59:33;27.70;;;0.80;;
3817;SDS011;1924;48.078;11.516;2024-02-14T07:02:03;27.60;;;0.80;;
3817;SDS011;1924;48.078;11.516;2024-02-14T07:04:31;27.70;;;0.80;;
3817;SDS011;1924;48.078;11.516;2024-02-14T07:06:58;27.60;;;0.80;;
3817;SDS011;1924;48.078;11.516;2024-02-14T07:09:25;27.40;;;0.80;;
3817;SDS011;1924;48.078;11.516;2024-02-14T07:11:53;27.50;;;0.80;;
3817;SDS011;1924;48.078;11.516;2024-02-14T07:14:21;27.67;;;0.80;;
3817;SDS011;1924;48.078;11.516;2024-02-14T07:16:48;27.43;;;0.80;;
3817;SDS011;1924;48.078;11.516;2024-02-14T07:19:17;27.70;;;0.80;;
3817;SDS011;1924;48.078;11.516;2024-02-14T07:21:44;27.50;;;0.80;;
3817;SDS011;1924;48.078;11.516;2024-02-14T07:24:11;27.60;;;0.80;;
3817;SDS011;1924;48.078;11.516;2024-02-14T07:26:37;27.80;;;0.80;;
3817;SDS011;1924;48.078;11.516;2024-02-14T07:29:05;27.80;;;0.80;;
3817;SDS011;1924;48.078;11.516;2024-02-14T07:31:32;27.70;;;0.80;;
3817;SDS011;1924;48.078;11.516;2024-02-14T07:33:59;27.70;;;0.80;;
3817;SDS011;1924;48.078;11.516;2024-02-14T07:36:29;27.57;;;0.80;;
3817;SDS011;1924;48.078;11.516;2024-02-14T07:38:56;27.80;;;0.80;;
3817;SDS011;1924;48.078;11.516;2024-02-14T07:41:23;27.60;;;0.80;;
3817;SDS011;1924;48.078;11.516;2024-02-14T07:43:49;27.77;;;0.80;;
3817;SDS011;1924;48.078;11.516;2024-02-14T07:46:17;27.67;;;0.80;;
3817;SDS011;1924;48.078;11.516;2024-02-14T07:48:44;27.70;;;0.80;;
3817;SDS011;1924;48.078;11.516;2024-02-14T07:51:11;27.77;;;0.80;;
3817;SDS011;1924;48.078;11.516;2024-02-14T07:53:39;27.90;;;0.80;;
3817;SDS011;1924;48.078;11.516;2024-02-14T07:56:05;27.73;;;0.80;;
3817;SDS011;1924;48.078;11.516;2024-02-14T07:58:32;27.90;;;0.80;;
3817;SDS011;1924;48.078;11.516;2024-02-14T08:00:59;27.90;;;0.80;;
3817;SDS011;1924;48.078;11.516;2024-02-14T08:03:26;27.80;;;0.80;;
3817;SDS011;1924;48.078;11.516;2024-02-14T08:05:52;27.90;;;0.80;;
3817;SDS011;1924;48.078;11.516;2024-02-14T08:08:19;28.07;;;0.80;;
3817;SDS011;1924;48.078;11.516;2024-02-14T08:10:47;27.90;;;0.80;;
3817;SDS011;1924;48.078;11.516;2024-02-14T08:13:14;28.27;;;0.80;;
3817;SDS011;1924;48.078;11.516;2024-02-14T08:15:42;28.10;;;0.80;;
3817;SDS011;1924;48.078;11.516;2024-02-14T08:18:09;27.90;;;0.80;;
3817;SDS011;1924;48.078;11.516;2024-02-14T08:20:35;28.20;;;0.80;;
3817;SDS011;1924;48.078;11.516;2024-02-14T08:23:02;27.90;;;0.80;;
3817;SDS011;1924;48.078;11.516;2024-02-14T08:25:29;28.00;;;0.80;;
3817;SDS011;1924;48.078;11.516;2024-02-14T08:27:57;27.90;;;0.80;;
3817;SDS011;1924;48.078;11.516;2024-02-14T08:30:24;28.07;;;0.80;;
3817;SDS011;1924;48.078;11.516;2024-02-14T08:32:52;27.90;;;0.80;;
3817;SDS011;1924;48.078;11.516;2024-02-14T08:35:19;28.07;;;0.80;;
3817;SDS011;1924;48.078;11.516;2024-02-14T08:37:46;28.20;;;0.80;;
3817;SDS011;1924;48.078;11.516;2024-02-14T08:40:13;27.97;;;0.80;;
3817;SDS011;1924;48.078;11.516;2024-02-14T08:42:40;27.97;;;0.80;;
3817;SDS011;1924;48.078;11.516;2024-02-14T08:45:09;28.10;;;0.80;;
3817;SDS011;1924;48.078;11.516;2024-02-14T08:47:36;28.20;;;0.80;;
3817;SDS011;1924;48.078;11.516;2024-02-14T08:50:03;28.10;;;0.80;;
3817;SDS011;1924;48.078;11.516;2024-02-14T08:52:30;28.50;;;0.80;;
3817;SDS011;1924;48.078;11.516;2024-02-14T08:54:57;28.37;;;0.80;;
3817;SDS011;1924;48.078;11.516;2024-02-14T08:57:24;28.40;;;0.80;;
3817;SDS011;1924;48.078;11.516;2024-02-14T08:59:51;28.40;;;0.80;;
3817;SDS011;1924;48.078;11.516;2024-02-14T09:02:19;28.40;;;0.80;;
3817;SDS011;1924;48.078;11.516;2024-02-14T09:04:47;28.40;;;0.80;;
3817;SDS011;1924;48.078;11.516;2024-02-14T09:07:14;28.60;;;0.80;;
3817;SDS011;1924;48.078;11.516;2024-02-14T09:09:41;28.70;;;0.80;;
3817;SDS011;1924;48.078;11.516;2024-02-14T09:12:08;28.80;;;0.80;;
3817;SDS011;1924;48.078;11.516;2024-02-14T09:14:35;28.90;;;0.80;;
3817;SDS011;1924;48.078;11.516;2024-02-14T09:17:01;28.87;;;0.80;;
3817;SDS011;1924;48.078;11.516;2024-02-14T09:19:29;28.90;;;0.80;;
3817;SDS011;1924;48.078;11.516;2024-02-14T09:21:56;28.87;;;0.80;;
3817;SDS011;1924;48.078;11.516;2024-02-14T09:24:24;29.20;;;0.80;;
3817;SDS011;1924;48.078;11.516;2024-02-14T09:26:50;29.07;;;0.80;;
3817;SDS011;1924;48.078;11.516;2024-02-14T09:29:17;29.10;;;0.80;;
3817;SDS011;1924;48.078;11.516;2024-02-14T09:31:44;29.07;;;0.80;;
3817;SDS011;1924;48.078;11.516;2024-02-14T09:34:12;29.40;;;0.80;;
3817;SDS011;1924;48.078;11.516;2024-02-14T09:36:41;29.27;;;0.80;;
3817;SDS011;1924;48.078;11.516;2024-02-14T09:39:08;29.30;;;0.80;;
3817;SDS011;1924;48.078;11.516;2024-02-14T09:41:36;29.10;;;0.80;;
3817;SDS011;1924;48.078;11.516;2024-02-14T09:44:05;29.23;;;0.80;;
3817;SDS011;1924;48.078;11.516;2024-02-14T09:46:32;29.20;;;0.80;;
3817;SDS011;1924;48.078;11.516;2024-02-14T09:49:02;29.40;;;0.80;;
3817;SDS011;1924;48.078;11.516;2024-02-14T09:51:30;29.17;;;0.80;;
3817;SDS011;1924;48.078;11.516;2024-02-14T09:53:59;29.50;;;0.80;;
3817;SDS011;1924;48.078;11.516;2024-02-14T09:56:26;29.50;;;0.80;;
3817;SDS011;1924;48.078;11.516;2024-02-14T09:58:54;29.40;;;0.80;;
3817;SDS011;1924;48.078;11.516;2024-02-14T10:01:21;29.50;;;0.80;;
3817;SDS011;1924;48.078;11.516;2024-02-14T10:03:52;29.60;;;0.80;;
3817;SDS011;1924;48.078;11.516;2024-02-14T10:06:19;29.33;;;0.80;;
3817;SDS011;1924;48.078;11.516;2024-02-14T10:08:47;29.30;;;0.80;;
3817;SDS011;1924;48.078;11.516;2024-02-14T10:11:16;29.27;;;0.80;;
3817;SDS011;1924;48.078;11.516;2024-02-14T10:13:46;29.37;;;0.80;;
3817;SDS011;1924;48.078;11.516;2024-02-14T10:16:15;29.47;;;0.80;;
3817;SDS011;1924;48.078;11.516;2024-02-14T10:18:43;29.30;;;0.80;;
3817;SDS011;1924;48.078;11.516;2024-02-14T10:21:14;29.57;;;0.80;;
3817;SDS011;1924;48.078;11.516;2024-02-14T10:23:42;29.83;;;0.80;;
3817;SDS011;1924;48.078;11.516;2024-02-14T10:26:09;29.87;;;0.80;;
3817;SDS011;1924;48.078;11.516;2024-02-14T10:28:41;30.20;;;0.80;;
3817;SDS011;1924;48.078;11.516;2024-02-14T10:31:09;30.17;;;0.80;;
3817;SDS011;1924;48.078;11.516;2024-02-14T10:33:38;30.60;;;0.80;;
3817;SDS011;1924;48.078;11.516;2024-02-14T10:36:05;30.57;;;0.80;;
3817;SDS011;1924;48.078;11.516;2024-02-14T10:38:34;30.80;;;0.80;;
3817;SDS011;1924;48.078;11.516;2024-02-14T10:41:02;30.80;;;0.80;;
3817;SDS011;1924;48.078;11.516;2024-02-14T10:43:29;30.90;;;0.80;;
3817;SDS011;1924;48.078;11.516;2024-02-14T10:45:59;31.00;;;0.80;;
3817;SDS011;1924;48.078;11.516;2024-02-14T10:48:31;31.07;;;0.80;;
3817;SDS011;1924;48.078;11.516;2024-02-14T10:51:01;31.27;;;0.80;;
3817;SDS011;1924;48.078;11.516;2024-02-14T10:53:31;31.50;;;0.80;;
3817;SDS011;1924;48.078;11.516;2024-02-14T10:56:00;31.70;;;0.80;;
3817;SDS011;1924;48.078;11.516;2024-02-14T10:58:27;31.87;;;0.80;;
3817;SDS011;1924;48.078;11.516;2024-02-14T11:00:56;32.20;;;0.80;;
3817;SDS011;1924;48.078;11.516;2024-02-14T11:03:24;32.07;;;0.80;;
3817;SDS011;1924;48.078;11.516;2024-02-14T11:05:53;32.03;;;0.80;;
3817;SDS011;1924;48.078;11.516;2024-02-14T11:08:25;32.10;;;0.80;;
3817;SDS011;1924;48.078;11.516;2024-02-14T11:10:58;31.97;;;0.80;;
3817;SDS011;1924;48.078;11.516;2024-02-14T11:13:26;32.20;;;0.80;;
3817;SDS011;1924;48.078;11.516;2024-02-14T11:15:56;32.17;;;0.80;;
3817;SDS011;1924;48.078;11.516;2024-02-14T11:23:22;31.73;;;0.80;;
3817;SDS011;1924;48.078;11.516;2024-02-14T11:25:49;31.57;;;0.80;;
3817;SDS011;1924;48.078;11.516;2024-02-14T11:28:17;31.53;;;0.80;;
3817;SDS011;1924;48.078;11.516;2024-02-14T11:30:45;31.67;;;0.80;;
3817;SDS011;1924;48.078;11.516;2024-02-14T11:33:13;31.60;;;0.80;;
3817;SDS011;1924;48.078;11.516;2024-02-14T11:35:45;31.67;;;0.80;;
3817;SDS011;1924;48.078;11.516;2024-02-14T11:38:12;31.50;;;0.80;;
3817;SDS011;1924;48.078;11.516;2024-02-14T11:40:40;31.30;;;0.80;;
3817;SDS011;1924;48.078;11.516;2024-02-14T11:43:10;31.47;;;0.80;;
3817;SDS011;1924;48.078;11.516;2024-02-14T11:45:39;31.20;;;0.80;;
3817;SDS011;1924;48.078;11.516;2024-02-14T11:48:07;31.20;;;0.80;;
3817;SDS011;1924;48.078;11.516;2024-02-14T11:50:34;30.97;;;0.80;;
3817;SDS011;1924;48.078;11.516;2024-02-14T11:53:01;31.40;;;0.80;;
3817;SDS011;1924;48.078;11.516;2024-02-14T11:55:29;31.27;;;0.80;;
3817;SDS011;1924;48.078;11.516;2024-02-14T11:57:59;31.27;;;0.80;;
3817;SDS011;1924;48.078;11.516;2024-02-14T12:00:26;31.27;;;0.80;;
3817;SDS011;1924;48.078;11.516;2024-02-14T12:02:53;31.30;;;0.80;;
3817;SDS011;1924;48.078;11.516;2024-02-14T12:05:20;31.30;;;0.80;;
3817;SDS011;1924;48.078;11.516;2024-02-14T12:07:47;31.23;;;0.80;;
3817;SDS011;1924;48.078;11.516;2024-02-14T12:10:15;31.40;;;0.80;;
3817;SDS011;1924;48.078;11.516;2024-02-14T12:12:44;31.20;;;0.80;;
3817;SDS011;1924;48.078;11.516;2024-02-14T12:15:13;31.07;;;0.80;;
3817;SDS011;1924;48.078;11.516;2024-02-14T12:17:41;31.17;;;0.80;;
3817;SDS011;1924;48.078;11.516;2024-02-14T12:20:08;31.37;;;0.80;;
3817;SDS011;1924;48.078;11.516;2024-02-14T12:22:39;31.27;;;0.80;;
3817;SDS011;1924;48.078;11.516;2024-02-14T12:25:06;31.43;;;0.80;;
3817;SDS011;1924;48.078;11.516;2024-02-14T12:27:36;31.20;;;0.80;;
3817;SDS011;1924;48.078;11.516;2024-02-14T12:30:03;31.20;;;0.80;;
3817;SDS011;1924;48.078;11.516;2024-02-14T12:32:31;31.10;;;0.80;;
3817;SDS011;1924;48.078;11.516;2024-02-14T12:34:58;31.30;;;0.80;;
3817;SDS011;1924;48.078;11.516;2024-02-14T12:37:25;30.97;;;0.80;;
3817;SDS011;1924;48.078;11.516;2024-02-14T12:39:52;31.20;;;0.80;;
3817;SDS011;1924;48.078;11.516;2024-02-14T12:42:20;31.13;;;0.80;;
3817;SDS011;1924;48.078;11.516;2024-02-14T12:44:50;31.00;;;0.80;;
3817;SDS011;1924;48.078;11.516;2024-02-14T12:47:17;31.00;;;0.80;;
3817;SDS011;1924;48.078;11.516;2024-02-14T12:49:48;31.07;;;0.80;;
3817;SDS011;1924;48.078;11.516;2024-02-14T12:52:15;31.10;;;0.80;;
3817;SDS011;1924;48.078;11.516;2024-02-14T12:54:43;31.10;;;0.80;;
3817;SDS011;1924;48.078;11.516;2024-02-14T12:57:09;31.00;;;0.80;;
3817;SDS011;1924;48.078;11.516;2024-02-14T12:59:36;31.20;;;0.80;;
3817;SDS011;1924;48.078;11.516;2024-02-14T13:02:03;31.10;;;0.80;;
3817;SDS011;1924;48.078;11.516;2024-02-14T13:04:32;30.87;;;0.80;;
3817;SDS011;1924;48.078;11.516;2024-02-14T13:07:00;31.10;;;0.80;;
3817;SDS011;1924;48.078;11.516;2024-02-14T13:09:27;30.97;;;0.80;;
3817;SDS011;1924;48.078;11.516;2024-02-14T13:11:54;31.20;;;0.80;;
3817;SDS011;1924;48.078;11.516;2024-02-14T13:14:20;31.20;;;0.80;;
3817;SDS011;1924;48.078;11.516;2024-02-14T13:16:47;31.10;;;0.80;;
3817;SDS011;1924;48.078;11.516;2024-02-14T13:19:14;31.20;;;0.80;;
3817;SDS011;1924;48.078;11.516;2024-02-14T13:21:41;31.27;;;0.80;;
3817;SDS011;1924;48.078;11.516;2024-02-14T13:24:11;31.30;;;0.80;;
3817;SDS011;1924;48.078;11.516;2024-02-14T13:26:39;31.20;;;0.80;;
3817;SDS011;1924;48.078;11.516;2024-02-14T13:29:06;31.27;;;0.80;;
3817;SDS011;1924;48.078;11.516;2024-02-14T13:31:33;31.30;;;0.80;;
3817;SDS011;1924;48.078;11.516;2024-02-14T13:33:59;31.40;;;0.80;;
3817;SDS011;1924;48.078;11.516;2024-02-14T13:36:28;31.17;;;0.80;;
3817;SDS011;1924;48.078;11.516;2024-02-14T13:38:55;31.40;;;0.80;;
3817;SDS011;1924;48.078;11.516;2024-02-14T13:41:23;31.30;;;0.80;;
3817;SDS011;1924;48.078;11.516;2024-02-14T13:43:51;31.40;;;0.80;;
3817;SDS011;1924;48.078;11.516;2024-02-14T13:46:18;31.17;;;0.80;;
3817;SDS011;1924;48.078;11.516;2024-02-14T13:48:45;31.10;;;0.80;;
3817;SDS011;1924;48.078;11.516;2024-02-14T13:51:11;31.30;;;0.80;;
3817;SDS011;1924;48.078;11.516;2024-02-14T13:53:40;31.40;;;0.80;;
3817;SDS011;1924;48.078;11.516;2024-02-14T13:56:06;31.40;;;0.80;;
3817;SDS011;1924;48.078;11.516;2024-02-14T13:58:34;31.33;;;0.80;;
3817;SDS011;1924;48.078;11.516;2024-02-14T14:01:03;31.43;;;0.80;;
3817;SDS011;1924;48.078;11.516;2024-02-14T14:03:32;31.17;;;0.80;;
3817;SDS011;1924;48.078;11.516;2024-02-14T14:06:00;31.40;;;0.80;;
3817;SDS011;1924;48.078;11.516;2024-02-14T14:08:27;31.43;;;0.80;;
3817;SDS011;1924;48.078;11.516;2024-02-14T14:10:54;31.30;;;0.80;;
3817;SDS011;1924;48.078;11.516;2024-02-14T14:13:21;31.20;;;0.80;;
3817;SDS011;1924;48.078;11.516;2024-02-14T14:15:49;31.30;;;0.80;;
3817;SDS011;1924;48.078;11.516;2024-02-14T14:18:16;31.20;;;0.80;;
3817;SDS011;1924;48.078;11.516;2024-02-14T14:20:43;31.30;;;0.80;;
3817;SDS011;1924;48.078;11.516;2024-02-14T14:23:09;31.23;;;0.80;;
3817;SDS011;1924;48.078;11.516;2024-02-14T14:25:36;31.30;;;0.80;;
3817;SDS011;1924;48.078;11.516;2024-02-14T14:28:03;31.20;;;0.80;;
3817;SDS011;1924;48.078;11.516;2024-02-14T14:30:31;31.17;;;0.80;;
3817;SDS011;1924;48.078;11.516;2024-02-14T14:32:59;31.17;;;0.80;;
3817;SDS011;1924;48.078;11.516;2024-02-14T14:35:26;31.30;;;0.80;;
3817;SDS011;1924;48.078;11.516;2024-02-14T14:37:53;31.10;;;0.80;;
3817;SDS011;1924;48.078;11.516;2024-02-14T14:40:20;31.27;;;0.80;;
3817;SDS011;1924;48.078;11.516;2024-02-14T14:42:47;31.37;;;0.80;;
3817;SDS011;1924;48.078;11.516;2024-02-14T14:45:14;31.33;;;0.80;;
3817;SDS011;1924;48.078;11.516;2024-02-14T14:47:41;31.20;;;0.80;;
3817;SDS011;1924;48.078;11.516;2024-02-14T14:50:10;31.27;;;0.80;;
3817;SDS011;1924;48.078;11.516;2024-02-14T14:52:37;31.50;;;0.80;;
3817;SDS011;1924;48.078;11.516;2024-02-14T14:55:04;31.37;;;0.80;;
3817;SDS011;1924;48.078;11.516;2024-02-14T14:57:32;31.50;;;0.80;;
3817;SDS011;1924;48.078;11.516;2024-02-14T15:00:05;31.50;;;0.80;;
3817;SDS011;1924;48.078;11.516;2024-02-14T15:02:34;31.40;;;0.80;;
3817;SDS011;1924;48.078;11.516;2024-02-14T15:05:01;31.30;;;0.80;;
3817;SDS011;1924;48.078;11.516;2024-02-14T15:07:29;31.40;;;0.80;;
3817;SDS011;1924;48.078;11.516;2024-02-14T15:09:56;31.17;;;0.80;;
3817;SDS011;1924;48.078;11.516;2024-02-14T15:12:23;31.37;;;0.80;;
3817;SDS011;1924;48.078;11.516;2024-02-14T15:14:51;31.40;;;0.80;;
3817;SDS011;1924;48.078;11.516;2024-02-14T15:17:18;31.27;;;0.80;;
3817;SDS011;1924;48.078;11.516;2024-02-14T15:19:47;31.37;;;0.80;;
3817;SDS011;1924;48.078;11.516;2024-02-14T15:22:14;31.10;;;0.80;;
3817;SDS011;1924;48.078;11.516;2024-02-14T15:24:42;31.20;;;0.80;;
3817;SDS011;1924;48.078;11.516;2024-02-14T15:27:10;31.40;;;0.80;;
3817;SDS011;1924;48.078;11.516;2024-02-14T15:29:45;31.20;;;0.80;;
3817;SDS011;1924;48.078;11.516;2024-02-14T15:32:30;31.30;;;0.80;;
3817;SDS011;1924;48.078;11.516;2024-02-14T15:35:19;31.10;;;0.80;;
3817;SDS011;1924;48.078;11.516;2024-02-14T15:37:47;31.20;;;0.80;;
3817;SDS011;1924;48.078;11.516;2024-02-14T15:40:16;31.30;;;0.80;;
3817;SDS011;1924;48.078;11.516;2024-02-14T15:42:43;31.30;;;0.80;;
3817;SDS011;1924;48.078;11.516;2024-02-14T15:45:10;31.30;;;0.80;;
3817;SDS011;1924;48.078;11.516;2024-02-14T15:47:41;31.20;;;0.80;;
3817;SDS011;1924;48.078;11.516;2024-02-14T15:50:08;31.20;;;0.80;;
3817;SDS011;1924;48.078;11.516;2024-02-14T15:52:35;31.20;;;0.80;;
3817;SDS011;1924;48.078;11.516;2024-02-14T15:55:02;31.27;;;0.80;;
3817;SDS011;1924;48.078;11.516;2024-02-14T15:57:31;30.97;;;0.80;;
3817;SDS011;1924;48.078;11.516;2024-02-14T15:59:58;31.17;;;0.80;;
3817;SDS011;1924;48.078;11.516;2024-02-14T16:02:25;31.20;;;0.80;;
3817;SDS011;1924;48.078;11.516;2024-02-14T16:04:52;31.30;;;0.80;;
3817;SDS011;1924;48.078;11.516;2024-02-14T16:07:19;31.20;;;0.80;;
3817;SDS011;1924;48.078;11.516;2024-02-14T16:09:45;31.40;;;0.80;;
3817;SDS011;1924;48.078;11.516;2024-02-14T16:12:12;31.00;;;0.80;;
3817;SDS011;1924;48.078;11.516;2024-02-14T16:14:41;31.17;;;0.80;;
3817;SDS011;1924;48.078;11.516;2024-02-14T16:17:09;31.20;;;0.80;;
3817;SDS011;1924;48.078;11.516;2024-02-14T16:19:36;31.30;;;0.80;;
3817;SDS011;1924;48.078;11.516;2024-02-14T16:22:03;31.13;;;0.80;;
3817;SDS011;1924;48.078;11.516;2024-02-14T16:24:30;31.10;;;0.80;;
3817;SDS011;1924;48.078;11.516;2024-02-14T16:26:58;31.00;;;0.80;;
3817;SDS011;1924;48.078;11.516;2024-02-14T16:29:25;31.20;;;0.80;;
3817;SDS011;1924;48.078;11.516;2024-02-14T16:31:54;31.10;;;0.80;;
3817;SDS011;1924;48.078;11.516;2024-02-14T16:34:20;31.00;;;0.80;;
3817;SDS011;1924;48.078;11.516;2024-02-14T16:36:47;31.17;;;0.80;;
3817;SDS011;1924;48.078;11.516;2024-02-14T16:39:14;31.10;;;0.80;;
3817;SDS011;1924;48.078;11.516;2024-02-14T16:41:40;31.50;;;0.80;;
3817;SDS011;1924;48.078;11.516;2024-02-14T16:44:07;31.30;;;0.80;;
3817;SDS011;1924;48.078;11.516;2024-02-14T16:46:34;31.07;;;0.80;;
3817;SDS011;1924;48.078;11.516;2024-02-14T16:49:03;30.90;;;0.80;;
3817;SDS011;1924;48.078;11.516;2024-02-14T16:51:30;30.90;;;0.80;;
3817;SDS011;1924;48.078;11.516;2024-02-14T16:53:56;31.20;;;0.80;;
3817;SDS011;1924;48.078;11.516;2024-02-14T16:56:23;30.77;;;0.80;;
3817;SDS011;1924;48.078;11.516;2024-02-14T16:58:55;31.00;;;0.80;;
3817;SDS011;1924;48.078;11.516;2024-02-14T17:01:22;30.87;;;0.80;;
3817;SDS011;1924;48.078;11.516;2024-02-14T17:03:49;30.90;;;0.80;;
3817;SDS011;1924;48.078;11.516;2024-02-14T17:06:18;30.93;;;0.80;;
3817;SDS011;1924;48.078;11.516;2024-02-14T17:08:45;30.77;;;0.80;;
3817;SDS011;1924;48.078;11.516;2024-02-14T17:11:12;30.87;;;0.80;;
3817;SDS011;1924;48.078;11.516;2024-02-14T17:13:40;30.80;;;0.80;;
3817;SDS011;1924;48.078;11.516;2024-02-14T17:16:06;30.73;;;0.80;;
3817;SDS011;1924;48.078;11.516;2024-02-14T17:18:33;30.90;;;0.80;;
3817;SDS011;1924;48.078;11.516;2024-02-14T17:21:00;30.63;;;0.80;;
3817;SDS011;1924;48.078;11.516;2024-02-14T17:23:28;30.90;;;0.80;;
3817;SDS011;1924;48.078;11.516;2024-02-14T17:25:55;30.80;;;0.80;;
3817;SDS011;1924;48.078;11.516;2024-02-14T17:28:22;30.60;;;0.80;;
3817;SDS011;1924;48.078;11.516;2024-02-14T17:30:49;30.77;;;0.80;;
3817;SDS011;1924;48.078;11.516;2024-02-14T17:33:17;30.77;;;0.80;;
3817;SDS011;1924;48.078;11.516;2024-02-14T17:35:43;30.70;;;0.80;;
3817;SDS011;1924;48.078;11.516;2024-02-14T17:38:10;31.10;;;0.90;;
3817;SDS011;1924;48.078;11.516;2024-02-14T17:40:38;30.80;;;0.80;;
3817;SDS011;1924;48.078;11.516;2024-02-14T17:43:05;30.70;;;0.80;;
3817;SDS011;1924;48.078;11.516;2024-02-14T17:45:32;30.70;;;0.80;;
3817;SDS011;1924;48.078;11.516;2024-02-14T17:48:00;30.67;;;0.80;;
3817;SDS011;1924;48.078;11.516;2024-02-14T17:50:27;30.40;;;0.80;;
3817;SDS011;1924;48.078;11.516;2024-02-14T17:52:54;30.63;;;0.80;;
3817;SDS011;1924;48.078;11.516;2024-02-14T17:55:21;30.67;;;0.80;;
3817;SDS011;1924;48.078;11.516;2024-02-14T17:57:50;30.50;;;0.80;;
3817;SDS011;1924;48.078;11.516;2024-02-14T18:00:18;30.53;;;0.80;;
3817;SDS011;1924;48.078;11.516;2024-02-14T18:02:47;30.47;;;0.80;;
3817;SDS011;1924;48.078;11.516;2024-02-14T18:05:14;30.50;;;0.80;;
3817;SDS011;1924;48.078;11.516;2024-02-14T18:07:41;30.60;;;0.80;;
3817;SDS011;1924;48.078;11.516;2024-02-14T18:10:08;30.57;;;0.80;;
3817;SDS011;1924;48.078;11.516;2024-02-14T18:12:35;30.57;;;0.80;;
3817;SDS011;1924;48.078;11.516;2024-02-14T18:15:04;30.30;;;0.80;;
3817;SDS011;1924;48.078;11.516;2024-02-14T18:17:32;30.50;;;0.80;;
3817;SDS011;1924;48.078;11.516;2024-02-14T18:20:00;30.50;;;0.80;;
3817;SDS011;1924;48.078;11.516;2024-02-14T18:22:27;30.40;;;0.80;;
3817;SDS011;1924;48.078;11.516;2024-02-14T18:24:53;30.40;;;0.80;;
3817;SDS011;1924;48.078;11.516;2024-02-14T18:29:46;30.60;;;0.80;;
3817;SDS011;1924;48.078;11.516;2024-02-14T18:32:15;30.50;;;0.80;;
3817;SDS011;1924;48.078;11.516;2024-02-14T18:34:41;30.20;;;0.80;;
3817;SDS011;1924;48.078;11.516;2024-02-14T18:37:08;30.30;;;0.80;;
3817;SDS011;1924;48.078;11.516;2024-02-14T18:39:36;30.40;;;0.80;;
3817;SDS011;1924;48.078;11.516;2024-02-14T18:42:04;30.37;;;0.80;;
3817;SDS011;1924;48.078;11.516;2024-02-14T18:44:31;30.30;;;0.80;;
3817;SDS011;1924;48.078;11.516;2024-02-14T18:46:59;30.60;;;0.80;;
3817;SDS011;1924;48.078;11.516;2024-02-14T18:49:27;30.30;;;0.80;;